Record high temperature 32.7°C Record low temperature 7.4°C Record high gust 41.1 mph Record high average 24.2 mph Record daily rain 12.6 mm Record low windchill 5.1°C Record high barometer 1038.3 hPa Record low barometer 997.7 hPa
Daily high pressure 1008.1 hPa Daily low pressure 1004.5 hPa Daily low windchill 15.3°C Daily high heat index 18.3°C Daily high gust speed 21.0 mph S Daily high average speed 13.1 mph SW
Seaford Weather Data
LAST READING AT TIME: 11:30 AM DATE: 23 September 2020, time of next update: 12:00 pm
Current WeatherCloudy/Dry Current Temperature 17.8°C (64.0°F) (Heat Index 17.8°C ), Apparent temp 17.3°C , Apparent temp solar 20.9°C
Maximum Temperature (since midnight)18.3°C at: 11:18 AM Minimum Temperature (since midnight)15.3°C at: 6:02 AM
Average windspeed (ten minute)7.1 mph Wind Direction (ten minute)SSW (201°)
Windchill Temperature 17.8°C Maximum Gust (last hour)17.0 mph at: 11:26 AM
Maximum Gust (since midnight)21.0 mph at: 4:01 AM Maximum 1 minute average (since midnight)13.1 mph at: 5:45 AM
Rainfall (last hour)0.0 mm Rainfall (since midnight)6.2 mm (0.24 in.) at 5:58 AM
Rainfall This month 8.2 mm (0.32 in.) Rainfall To date this year 510.2 mm (20.09 in.)
Maximum rain per minute (last hour)0.0 mm/min Maximum rain per hour (last 6 hours)1.2 mm/hour
Yesterdays rainfall 0.0 mm DewPoint 14.7°C (Wet Bulb :16.0°C )
Humidity 82 %, Humidex 21.6°C Barometer corrected to msl1004.6 hPa
Pressure change -0.2 hPa (last hour) Trend (last hour)STEADY
Pressure change (last 12 hours)-3.9 hPa Pressure change (last 6 hours)-0.1 hPa
Current 00:49 hours of sunshine today, current sky: Cloudy
Sunshine hours for the year: 617:13 hrs Sunshine hours for the month: 58:15 hrs
Current evapotranspiration rate 1.4 mm per day. Yesterday's reading 2.5



Weather report/warning/Metars

Shoreham Airport, United Kingdom (EGKA) 50-50N 000-17W 0M
Sep 23, 2020 - 05:50 AM EDT / 2020.09.23 0950 UTC
Wind: from the SSW (210 degrees) at 20 MPH (17 KT):0
Visibility: greater than 7 mile(s):0
Sky conditions: mostly cloudy
Temperature: 64 F (18 C)
Dew Point: 59 F (15 C)
Relative Humidity: 82%
Pressure (altimeter): 29.59 in. Hg (1002 hPa)
ob: EGKA 230950Z 21017KT 9999 SCT013 BKN043 18/15 Q1002
cycle: 10
Yeovilton, United Kingdom (EGDY) 51-00N 002-38W 0M
Sep 23, 2020 - 05:50 AM EDT / 2020.09.23 0950 UTC
Wind: from the SW (220 degrees) at 8 MPH (7 KT):0
Visibility: greater than 7 mile(s):0
Sky conditions: mostly cloudy
Weather: light rain
Temperature: 60 F (16 C)
Dew Point: 57 F (14 C)
Relative Humidity: 87%
Pressure (altimeter): 29.53 in. Hg (1000 hPa)
ob: EGDY 230950Z 22007KT 9999 -RA FEW010 SCT022 BKN035 16/14 Q1000 TEMPO 8000 SHRA BKN008 RMK WHT BECMG GRN
cycle: 10
Luton Airport , United Kingdom (EGGW) 51-52N 000-22W
Sep 23, 2020 - 05:50 AM EDT / 2020.09.23 0950 UTC
Wind: from the SSW (210 degrees) at 12 MPH (10 KT) (direction variable):0
Visibility: greater than 7 mile(s):0
Sky conditions: mostly cloudy
Temperature: 60 F (16 C)
Dew Point: 57 F (14 C)
Relative Humidity: 87%
Pressure (altimeter): 29.56 in. Hg (1001 hPa)
ob: EGGW 230950Z AUTO 21010KT 170V230 9999 BKN010 BKN029 16/14 Q1001
cycle: 10
Bournemouth Airport, United Kingdom (EGHH) 50-47N 001-50W 0M
Sep 23, 2020 - 05:50 AM EDT / 2020.09.23 0950 UTC
Wind: from the SW (230 degrees) at 9 MPH (8 KT) (direction variable):0
Visibility: greater than 7 mile(s):0
Sky conditions: mostly cloudy
Temperature: 62 F (17 C)
Dew Point: 57 F (14 C)
Relative Humidity: 82%
Pressure (altimeter): 29.56 in. Hg (1001 hPa)
ob: EGHH 230950Z 23008KT 190V260 9999 FEW008 SCT015 BKN025 17/14 Q1001
cycle: 10
Guernsey Airport, United Kingdom (EGJB) 49-26N 002-36W 0M
Sep 23, 2020 - 05:50 AM EDT / 2020.09.23 0950 UTC
Wind: from the SW (230 degrees) at 17 MPH (15 KT):0
Visibility: greater than 7 mile(s):0
Sky conditions: partly cloudy
Temperature: 62 F (17 C)
Dew Point: 55 F (13 C)
Relative Humidity: 77%
Pressure (altimeter): 29.62 in. Hg (1003 hPa)
ob: EGJB 230950Z 23015KT 9999 FEW012 SCT028 17/13 Q1003
cycle: 10
Jersey Airport, United Kingdom (EGJJ) 49-13N 002-12W 0M
Sep 23, 2020 - 05:50 AM EDT / 2020.09.23 0950 UTC
Wind: from the SSW (200 degrees) at 12 MPH (10 KT):0
Visibility: greater than 7 mile(s):0
Sky conditions: partly cloudy
Temperature: 62 F (17 C)
Dew Point: 60 F (16 C)
Relative Humidity: 93%
Pressure (altimeter): 29.62 in. Hg (1003 hPa)
ob: EGJJ 230950Z 20010KT 9999 FEW003 SCT010 17/16 Q1003
cycle: 10
London / Gatwick Airport, United Kingdom (EGKK) 51-09N 000-11W 0M
Sep 23, 2020 - 05:50 AM EDT / 2020.09.23 0950 UTC
Wind: from the SSW (210 degrees) at 12 MPH (10 KT):0
Visibility: greater than 7 mile(s):0
Sky conditions: mostly cloudy
Temperature: 64 F (18 C)
Dew Point: 57 F (14 C)
Relative Humidity: 77%
Pressure (altimeter): 29.59 in. Hg (1002 hPa)
ob: EGKK 230950Z 21010KT 9999 SCT015 BKN019 18/14 Q1002
cycle: 10
London / Heathrow Airport, United Kingdom (EGLL) 51-29N 000-27W 0M
Sep 23, 2020 - 05:50 AM EDT / 2020.09.23 0950 UTC
Wind: from the SSW (210 degrees) at 13 MPH (11 KT):0
Visibility: greater than 7 mile(s):0
Sky conditions: mostly clear
Temperature: 64 F (18 C)
Dew Point: 55 F (13 C)
Relative Humidity: 72%
Pressure (altimeter): 29.56 in. Hg (1001 hPa)
ob: EGLL 230950Z AUTO 21011KT 9999 FEW021 18/13 Q1001
cycle: 10
Southend-On-Sea , United Kingdom (EGMC) 51-34N 000-42E
Sep 23, 2020 - 05:50 AM EDT / 2020.09.23 0950 UTC
Wind: from the SSW (210 degrees) at 15 MPH (13 KT):0
Visibility: greater than 7 mile(s):0
Sky conditions: mostly clear
Temperature: 64 F (18 C)
Dew Point: 57 F (14 C)
Relative Humidity: 77%
Pressure (altimeter): 29.56 in. Hg (1001 hPa)
ob: EGMC 230950Z 21013KT 9999 FEW019 18/14 Q1001
cycle: 10
Lydd Airport , United Kingdom (EGMD) 50-57N 000-56E
Sep 23, 2020 - 05:50 AM EDT / 2020.09.23 0950 UTC
Wind: from the SW (230 degrees) at 22 MPH (19 KT):0
Visibility: greater than 7 mile(s):0
Sky conditions: partly cloudy
Temperature: 66 F (19 C)
Dew Point: 60 F (16 C)
Relative Humidity: 82%
Pressure (altimeter): 29.62 in. Hg (1003 hPa)
ob: EGMD 230950Z 23019KT 9999 SCT013 19/16 Q1003
cycle: 10
Glasgow Airport, United Kingdom (EGPF) 55-52N 004-26W 0M
Sep 23, 2020 - 05:50 AM EDT / 2020.09.23 0950 UTC
Wind: Variable at 1 MPH (1 KT):0
Visibility: greater than 7 mile(s):0
Temperature: 51 F (11 C)
Dew Point: 41 F (5 C)
Relative Humidity: 66%
Pressure (altimeter): 29.59 in. Hg (1002 hPa)
ob: EGPF 230950Z AUTO VRB01KT 9999 NCD 11/05 Q1002
cycle: 10
Stansted Airport, United Kingdom (EGSS) 51-53N 000-14E 0M
Sep 23, 2020 - 05:50 AM EDT / 2020.09.23 0950 UTC
Wind: from the SSW (210 degrees) at 15 MPH (13 KT):0
Visibility: greater than 7 mile(s):0
Sky conditions: mostly cloudy
Temperature: 62 F (17 C)
Dew Point: 57 F (14 C)
Relative Humidity: 82%
Pressure (altimeter): 29.56 in. Hg (1001 hPa)
ob: EGSS 230950Z AUTO 21013KT 9999 BKN012 17/14 Q1001
cycle: 10
Brize Norton, United Kingdom (EGVN) 51-45N 001-35W 0M
Sep 23, 2020 - 05:50 AM EDT / 2020.09.23 0950 UTC
Wind: from the SSW (210 degrees) at 7 MPH (6 KT):0
Visibility: greater than 7 mile(s):0
Sky conditions: mostly cloudy
Weather: light rain
Temperature: 59 F (15 C)
Dew Point: 57 F (14 C)
Relative Humidity: 93%
Pressure (altimeter): 29.53 in. Hg (1000 hPa)
ob: EGVN 230950Z 21006KT 9999 -RA SCT012 BKN020 15/14 Q1000 TEMPO 7000 RA
cycle: 10



The data is logged at two minute intervals, but there is data recorded every minute. On the graph, the Blue line represents the average windspeed, the Red line is the maximum gust for that interval, and the Green line is what the wind has dropped off to in the same interval. Fuschia is the Barometer, and the dew point and Blue is humidity.

Use the RELOAD facility on your browser to retrieve the latest data.

Click here for a daily update of the averages/extremes to date for the month

Check *Live* Weather

Created by "Weather Display" software version 10.37S at this start time/date 09:51:37 27/08/2020